Time;durP1;ratioP1;P1;durP2;ratioP2;P2;SDS_P1;SDS_P2;PMS_P1;PMS_P2;Temp;Humidity;BMP_temperature;BMP_pressure;BME280_temperature;BME280_humidity;BME280_pressure;Samples;Min_cycle;Max_cycle;Signal;HPM_P1;HPM_P2
2023/10/12 00:01:23;;;;;;;;;;;19.80;75.60;;;;;;5070985;28;19924;-68
2023/10/12 00:03:53;;;;;;;;;;;19.80;75.60;;;;;;5070005;28;19924;-68
2023/10/12 00:06:19;;;;;;;;;;;19.80;75.60;;;;;;5071666;28;19931;-68
2023/10/12 00:08:45;;;;;;;;;;;19.70;75.60;;;;;;5070690;28;19921;-68
2023/10/12 00:11:11;;;;;;;;;;;19.70;75.60;;;;;;5071665;28;19921;-72
2023/10/12 00:13:41;;;;;;;;;;;19.80;75.60;;;;;;5071769;28;20003;-68
2023/10/12 00:16:07;;;;;;;;;;;19.80;75.60;;;;;;5070205;28;20058;-68
2023/10/12 00:18:35;;;;;;;;;;;19.70;75.60;;;;;;5088002;28;20426;-68
2023/10/12 00:21:05;;;;;;;;;;;19.70;75.50;;;;;;5090845;28;19985;-68
2023/10/12 00:23:33;;;;;;;;;;;19.80;75.50;;;;;;5090177;28;19946;-68
2023/10/12 00:25:59;;;;;;;;;;;19.70;75.50;;;;;;5091425;28;19954;-68
2023/10/12 00:28:38;;;;;;;;;;;19.60;75.40;;;;;;5090614;28;19920;-68
2023/10/12 00:31:05;;;;;;;;;;;19.70;75.50;;;;;;5091178;28;20295;-68
2023/10/12 00:33:31;;;;;;;;;;;19.70;75.40;;;;;;5090135;28;19923;-68
2023/10/12 00:36:01;;;;;;;;;;;19.70;75.40;;;;;;5089690;28;19920;-68
2023/10/12 00:38:29;;;;;;;;;;;19.70;75.40;;;;;;5090207;28;20030;-68
2023/10/12 00:40:57;;;;;;;;;;;19.70;75.40;;;;;;5090170;28;19920;-68
2023/10/12 00:43:32;;;;;;;;;;;19.70;75.40;;;;;;5090075;28;19970;-67
2023/10/12 00:45:58;;;;;;;;;;;19.70;75.50;;;;;;5090398;28;20357;-68
2023/10/12 00:48:29;;;;;;;;;;;19.60;75.40;;;;;;5091722;28;20290;-68
2023/10/12 00:50:56;;;;;;;;;;;19.60;75.40;;;;;;5090509;28;19951;-68
2023/10/12 00:53:22;;;;;;;;;;;19.60;75.40;;;;;;5090381;28;19951;-68
2023/10/12 00:55:48;;;;;;;;;;;19.60;75.40;;;;;;5091124;28;19978;-68
2023/10/12 00:58:14;;;;;;;;;;;19.60;75.40;;;;;;5090471;28;19920;-68
2023/10/12 01:00:44;;;;;;;;;;;19.60;75.40;;;;;;5090113;28;19974;-68
2023/10/12 01:03:45;;;;;;;;;;;19.60;75.40;;;;;;5091393;28;19935;-68
2023/10/12 01:06:12;;;;;;;;;;;19.60;75.40;;;;;;5090314;28;19920;-68
2023/10/12 01:08:42;;;;;;;;;;;19.50;75.30;;;;;;5091444;28;19919;-67
2023/10/12 01:11:09;;;;;;;;;;;19.50;75.30;;;;;;5093714;28;19927;-67
2023/10/12 01:13:34;;;;;;;;;;;19.50;75.30;;;;;;5095256;28;19920;-68
2023/10/12 01:16:07;;;;;;;;;;;19.50;75.30;;;;;;5093689;28;19920;-68
2023/10/12 01:18:34;;;;;;;;;;;19.50;75.30;;;;;;5095018;28;19965;-68
2023/10/12 01:21:02;;;;;;;;;;;19.50;75.30;;;;;;5093709;28;19920;-68
2023/10/12 01:23:28;;;;;;;;;;;19.50;75.30;;;;;;5093513;28;20026;-68
2023/10/12 01:26:03;;;;;;;;;;;19.50;75.40;;;;;;5093917;28;20444;-68
2023/10/12 01:28:29;;;;;;;;;;;19.50;75.30;;;;;;5093380;28;19947;-68
2023/10/12 01:30:54;;;;;;;;;;;19.50;75.30;;;;;;5093369;28;20372;-68
2023/10/12 01:33:20;;;;;;;;;;;19.50;75.40;;;;;;5093184;28;19920;-68
2023/10/12 01:35:49;;;;;;;;;;;19.50;75.40;;;;;;5092712;28;19927;-68
2023/10/12 01:38:16;;;;;;;;;;;19.40;75.30;;;;;;5093202;28;19920;-68
2023/10/12 01:43:27;;;;;;;;;;;19.50;75.40;;;;;;5109454;27;19908;-68
2023/10/12 01:45:59;;;;;;;;;;;19.50;75.40;;;;;;5108170;28;20010;-68
2023/10/12 01:48:29;;;;;;;;;;;19.50;75.40;;;;;;5108547;28;19955;-68
2023/10/12 01:50:55;;;;;;;;;;;19.50;75.40;;;;;;5108740;28;19947;-68
2023/10/12 01:56:09;;;;;;;;;;;19.40;75.40;;;;;;5129788;27;20374;-68
2023/10/12 01:58:35;;;;;;;;;;;19.40;75.40;;;;;;5129234;28;19945;-68
2023/10/12 02:01:07;;;;;;;;;;;19.40;75.40;;;;;;5129499;28;19969;-68
2023/10/12 02:03:33;;;;;;;;;;;19.40;75.40;;;;;;5128963;28;19958;-68
2023/10/12 02:05:59;;;;;;;;;;;19.40;75.40;;;;;;5130128;27;20354;-68
2023/10/12 02:11:12;;;;;;;;;;;19.40;75.40;;;;;;5090211;28;19940;-68
2023/10/12 02:13:41;;;;;;;;;;;19.40;75.40;;;;;;5087751;28;20385;-68
2023/10/12 02:16:10;;;;;;;;;;;19.40;75.40;;;;;;5088440;28;19923;-68
2023/10/12 02:18:35;;;;;;;;;;;19.40;75.40;;;;;;5088580;28;19931;-68
2023/10/12 02:21:11;;;;;;;;;;;19.40;75.40;;;;;;5088303;28;20307;-68
2023/10/12 02:23:39;;;;;;;;;;;19.40;75.40;;;;;;5087947;28;19916;-68
2023/10/12 02:26:28;;;;;;;;;;;19.40;75.40;;;;;;5088127;28;19916;-68
2023/10/12 02:28:53;;;;;;;;;;;19.30;75.40;;;;;;5088126;28;19917;-68
2023/10/12 02:31:20;;;;;;;;;;;19.30;75.40;;;;;;5088392;28;19962;-68
2023/10/12 02:33:45;;;;;;;;;;;19.30;75.30;;;;;;5087744;28;20101;-68
2023/10/12 02:36:12;;;;;;;;;;;19.30;75.40;;;;;;5087673;28;20512;-68
2023/10/12 02:38:41;;;;;;;;;;;19.30;75.40;;;;;;5087621;28;19923;-67
2023/10/12 02:41:12;;;;;;;;;;;19.30;75.40;;;;;;5087206;28;19916;-68
2023/10/12 02:43:38;;;;;;;;;;;19.30;75.30;;;;;;5087427;28;19921;-67
2023/10/12 02:46:06;;;;;;;;;;;19.30;75.40;;;;;;5103713;28;19931;-68
2023/10/12 02:48:36;;;;;;;;;;;19.30;75.40;;;;;;5087699;28;20372;-67
2023/10/12 02:51:06;;;;;;;;;;;19.30;75.40;;;;;;5087832;28;20450;-68
2023/10/12 02:53:34;;;;;;;;;;;19.30;75.40;;;;;;5089126;28;19921;-68
2023/10/12 02:56:01;;;;;;;;;;;19.30;75.40;;;;;;5087811;28;19928;-68
2023/10/12 02:58:27;;;;;;;;;;;19.30;75.40;;;;;;5087361;28;19927;-68
2023/10/12 03:00:56;;;;;;;;;;;19.30;75.40;;;;;;5087385;28;19932;-68
2023/10/12 03:03:25;;;;;;;;;;;19.30;75.40;;;;;;5086771;28;19921;-68
2023/10/12 03:05:52;;;;;;;;;;;19.50;75.30;;;;;;5086186;28;19927;-68
2023/10/12 03:08:20;;;;;;;;;;;19.90;74.60;;;;;;5086948;28;19932;-67
2023/10/12 03:11:11;;;;;;;;;;;20.30;73.60;;;;;;5087195;28;19932;-67
2023/10/12 03:13:35;;;;;;;;;;;20.90;72.00;;;;;;5088648;28;19928;-68
2023/10/12 03:16:09;;;;;;;;;;;21.80;69.40;;;;;;5087966;28;19920;-73
2023/10/12 03:18:35;;;;;;;;;;;22.60;66.90;;;;;;5086791;28;19927;-72
2023/10/12 03:21:04;;;;;;;;;;;23.30;64.70;;;;;;5082527;28;20291;-70
2023/10/12 03:23:33;;;;;;;;;;;23.90;63.10;;;;;;5072867;28;20300;-71
2023/10/12 03:26:04;;;;;;;;;;;24.30;61.70;;;;;;5072352;28;19927;-73
2023/10/12 03:28:30;;;;;;;;;;;24.50;60.90;;;;;;5073094;28;19931;-71
2023/10/12 03:31:15;;;;;;;;;;;24.70;60.40;;;;;;5073327;28;20234;-71
2023/10/12 03:33:46;;;;;;;;;;;24.60;60.30;;;;;;5073618;28;19921;-68
2023/10/12 03:36:22;;;;;;;;;;;24.50;60.30;;;;;;5073619;28;19921;-68
2023/10/12 03:39:06;;;;;;;;;;;24.40;60.40;;;;;;5072895;28;20003;-67
2023/10/12 03:41:49;;;;;;;;;;;24.30;60.60;;;;;;5072419;28;20276;-67
2023/10/12 03:44:35;;;;;;;;;;;24.10;61.00;;;;;;5072744;28;19931;-72
2023/10/12 03:47:04;;;;;;;;;;;23.90;62.20;;;;;;5073076;28;19920;-67
2023/10/12 03:52:14;;;;;;;;;;;23.50;62.30;;;;;;5130200;27;20266;-68
2023/10/12 03:54:55;;;;;;;;;;;23.30;62.70;;;;;;5128969;28;19978;-68
2023/10/12 04:21:36;;;;;;;;;;;21.70;67.00;;;;;;5108743;27;20279;-71
2023/10/12 04:24:42;;;;;;;;;;;21.60;67.30;;;;;;5107685;28;19943;-68
2023/10/12 04:29:32;;;;;;;;;;;21.40;67.80;;;;;;5107703;28;19920;-68
2023/10/12 04:32:09;;;;;;;;;;;21.30;68.00;;;;;;5108794;28;20019;-71
2023/10/12 04:34:46;;;;;;;;;;;21.20;68.20;;;;;;5108679;28;19928;-68
2023/10/12 04:37:12;;;;;;;;;;;21.10;68.40;;;;;;5108767;28;20375;-68
2023/10/12 04:39:37;;;;;;;;;;;21.10;68.70;;;;;;5108524;28;19943;-68
2023/10/12 04:42:11;;;;;;;;;;;21.00;68.90;;;;;;5108649;28;19924;-69
2023/10/12 04:44:43;;;;;;;;;;;21.00;69.00;;;;;;5108866;28;19994;-69
2023/10/12 04:47:10;;;;;;;;;;;20.90;69.10;;;;;;5108455;28;19938;-68
2023/10/12 04:52:24;;;;;;;;;;;21.00;69.10;;;;;;5109940;27;19918;-70
2023/10/12 04:57:39;;;;;;;;;;;21.20;68.60;;;;;;5130894;27;19912;-69
2023/10/12 05:03:22;;;;;;;;;;;21.40;68.00;;;;;;5109145;27;19912;-68
2023/10/12 05:08:15;;;;;;;;;;;21.50;67.40;;;;;;5108166;28;20562;-68
2023/10/12 05:10:46;;;;;;;;;;;21.60;67.30;;;;;;5108422;28;20196;-68
2023/10/12 05:13:12;;;;;;;;;;;21.60;67.00;;;;;;5108580;28;19920;-71
2023/10/12 05:15:42;;;;;;;;;;;21.60;67.00;;;;;;5109108;28;20275;-68
2023/10/12 05:18:09;;;;;;;;;;;21.70;66.90;;;;;;5108636;28;20444;-68
2023/10/12 05:20:35;;;;;;;;;;;21.70;66.80;;;;;;5109667;28;20348;-68
2023/10/12 05:23:02;;;;;;;;;;;21.60;67.40;;;;;;5108240;28;19967;-70
2023/10/12 05:25:33;;;;;;;;;;;21.70;66.60;;;;;;5106426;28;19920;-70
2023/10/12 05:28:14;;;;;;;;;;;21.70;66.60;;;;;;5107818;28;19926;-68
2023/10/12 05:30:47;;;;;;;;;;;21.60;66.60;;;;;;5107349;28;19920;-70
2023/10/12 05:33:37;;;;;;;;;;;21.50;66.80;;;;;;5106636;28;19924;-71
2023/10/12 05:36:00;;;;;;;;;;;21.50;66.90;;;;;;5107006;28;19966;-70
2023/10/12 05:38:34;;;;;;;;;;;21.40;67.10;;;;;;5107960;28;19924;-73
2023/10/12 05:41:00;;;;;;;;;;;21.30;67.10;;;;;;5107243;28;19973;-74
2023/10/12 05:43:29;;;;;;;;;;;21.30;67.20;;;;;;5108339;28;19919;-70
2023/10/12 05:45:54;;;;;;;;;;;21.20;67.20;;;;;;5105549;28;19920;-70
2023/10/12 05:48:20;;;;;;;;;;;21.20;67.30;;;;;;5104106;28;19920;-70
2023/10/12 05:50:49;;;;;;;;;;;21.10;67.20;;;;;;5104683;28;19949;-74
2023/10/12 05:53:16;;;;;;;;;;;21.10;67.20;;;;;;5106117;28;19920;-71
2023/10/12 05:55:43;;;;;;;;;;;21.00;67.20;;;;;;5102003;28;20541;-71
2023/10/12 05:58:11;;;;;;;;;;;21.00;67.30;;;;;;5103745;28;19927;-74
2023/10/12 06:00:37;;;;;;;;;;;21.00;67.40;;;;;;5106726;28;19981;-74
2023/10/12 06:03:07;;;;;;;;;;;21.10;67.40;;;;;;5132035;27;20383;-70
2023/10/12 06:05:34;;;;;;;;;;;21.20;67.20;;;;;;5112498;27;20634;-75
2023/10/12 06:08:00;;;;;;;;;;;21.20;67.10;;;;;;5113579;28;19927;-69
2023/10/12 06:10:27;;;;;;;;;;;21.20;67.00;;;;;;5118221;27;20036;-75
2023/10/12 06:12:53;;;;;;;;;;;21.30;66.90;;;;;;5101585;27;20403;-75
2023/10/12 06:15:23;;;;;;;;;;;21.30;66.80;;;;;;5097246;27;19935;-70
2023/10/12 06:17:51;;;;;;;;;;;21.30;66.80;;;;;;5105499;28;19921;-75
2023/10/12 06:20:29;;;;;;;;;;;21.30;66.70;;;;;;5093067;28;19924;-69
2023/10/12 06:22:55;;;;;;;;;;;21.30;66.60;;;;;;5091847;28;19973;-69
2023/10/12 06:25:21;;;;;;;;;;;21.40;66.50;;;;;;5094616;28;19945;-69
2023/10/12 06:27:48;;;;;;;;;;;21.40;66.50;;;;;;5111355;28;19926;-69
2023/10/12 06:30:18;;;;;;;;;;;21.40;66.60;;;;;;5078480;28;19924;-71
2023/10/12 06:32:46;;;;;;;;;;;21.40;66.60;;;;;;5080990;28;19924;-69
2023/10/12 06:35:23;;;;;;;;;;;21.40;66.60;;;;;;5077459;28;20318;-71
2023/10/12 06:38:15;;;;;;;;;;;21.40;66.50;;;;;;5093765;28;19997;-71
2023/10/12 06:40:37;;;;;;;;;;;21.40;66.30;;;;;;5081844;28;20008;-70
2023/10/12 06:45:51;;;;;;;;;;;21.50;66.20;;;;;;5083609;27;20274;-69
2023/10/12 06:51:13;;;;;;;;;;;21.50;66.20;;;;;;5077155;27;19928;-72
2023/10/12 06:53:41;;;;;;;;;;;21.50;66.20;;;;;;5072782;28;19928;-71
2023/10/12 06:59:35;;;;;;;;;;;21.50;66.20;;;;;;5072270;28;19925;-74
2023/10/12 07:04:38;;;;;;;;;;;21.50;66.20;;;;;;5086455;27;19939;-72
2023/10/12 07:07:07;;;;;;;;;;;21.40;66.20;;;;;;5081635;28;20264;-76
2023/10/12 07:09:42;;;;;;;;;;;21.40;66.20;;;;;;5080983;28;19928;-75
2023/10/12 07:12:11;;;;;;;;;;;21.40;66.40;;;;;;5111966;27;20032;-73
2023/10/12 07:14:38;;;;;;;;;;;21.40;66.30;;;;;;5085340;28;21352;-76
2023/10/12 07:17:04;;;;;;;;;;;21.40;66.40;;;;;;5085004;28;19927;-73
2023/10/12 07:19:30;;;;;;;;;;;21.40;66.40;;;;;;5077668;28;19924;-73
2023/10/12 07:22:01;;;;;;;;;;;21.40;66.50;;;;;;5084275;28;19928;-73
2023/10/12 07:24:26;;;;;;;;;;;21.40;66.50;;;;;;5083987;28;19928;-73
2023/10/12 07:26:52;;;;;;;;;;;21.30;66.40;;;;;;5082980;28;19925;-75
2023/10/12 07:29:35;;;;;;;;;;;21.30;66.50;;;;;;5079506;28;19927;-74
2023/10/12 07:32:17;;;;;;;;;;;21.30;66.50;;;;;;5077569;28;20681;-74
2023/10/12 07:34:47;;;;;;;;;;;21.30;66.50;;;;;;5081390;28;20027;-73
2023/10/12 07:37:13;;;;;;;;;;;21.30;66.60;;;;;;5080747;28;19955;-75
2023/10/12 07:39:42;;;;;;;;;;;21.30;66.60;;;;;;5082882;28;19976;-72
2023/10/12 07:42:12;;;;;;;;;;;21.30;66.60;;;;;;5115031;28;19920;-73
2023/10/12 07:44:42;;;;;;;;;;;21.30;66.60;;;;;;5080742;28;20328;-74
2023/10/12 07:47:40;;;;;;;;;;;21.30;66.60;;;;;;5080857;28;20338;-74
2023/10/12 07:49:57;;;;;;;;;;;21.30;66.50;;;;;;5082953;28;19993;-73
2023/10/12 07:52:33;;;;;;;;;;;21.30;66.50;;;;;;5081103;28;19928;-73
2023/10/12 07:54:59;;;;;;;;;;;21.30;66.50;;;;;;5084744;28;19920;-73
2023/10/12 07:57:29;;;;;;;;;;;21.30;66.50;;;;;;5081658;28;19963;-73
2023/10/12 08:08:33;;;;;;;;;;;21.30;66.60;;;;;;5090165;27;19932;-72
2023/10/12 08:11:00;;;;;;;;;;;21.30;66.60;;;;;;5077021;28;20378;-74
2023/10/12 08:13:26;;;;;;;;;;;21.30;66.60;;;;;;5081460;28;19925;-72
2023/10/12 08:21:34;;;;;;;;;;;21.20;66.70;;;;;;5049875;28;19960;-71
2023/10/12 08:26:50;;;;;;;;;;;21.20;66.90;;;;;;5073394;27;19942;-72
2023/10/12 08:30:11;;;;;;;;;;;21.10;66.90;;;;;;5074208;28;20199;-72
2023/10/12 08:32:04;;;;;;;;;;;21.10;67.00;;;;;;5075766;28;20397;-72
2023/10/12 08:40:08;;;;;;;;;;;21.10;67.30;;;;;;5093194;27;19946;-71
2023/10/12 08:45:15;;;;;;;;;;;21.00;67.40;;;;;;5077374;27;19926;-73
2023/10/12 08:47:48;;;;;;;;;;;21.00;67.50;;;;;;5072149;28;20020;-72
2023/10/12 08:50:47;;;;;;;;;;;21.00;67.50;;;;;;5079096;28;19935;-71
2023/10/12 08:53:03;;;;;;;;;;;21.00;67.60;;;;;;5076923;28;21009;-71
2023/10/12 08:55:31;;;;;;;;;;;21.10;67.70;;;;;;5112821;27;20013;-70
2023/10/12 08:58:11;;;;;;;;;;;21.00;67.70;;;;;;5079268;28;19932;-70
2023/10/12 09:05:58;;;;;;;;;;;21.10;67.40;;;;;;5076818;27;19916;-71
2023/10/12 09:11:13;;;;;;;;;;;21.20;67.20;;;;;;5079373;27;19916;-70
2023/10/12 09:13:45;;;;;;;;;;;21.20;67.20;;;;;;5058305;28;19928;-70
2023/10/12 09:16:11;;;;;;;;;;;21.20;67.20;;;;;;5056240;28;19943;-72
2023/10/12 09:18:43;;;;;;;;;;;21.20;67.20;;;;;;5056858;28;20049;-72
2023/10/12 09:21:23;;;;;;;;;;;21.10;67.20;;;;;;5072131;28;19928;-71
2023/10/12 09:23:52;;;;;;;;;;;21.20;67.30;;;;;;5052399;28;19921;-71
2023/10/12 09:26:30;;;;;;;;;;;21.20;67.20;;;;;;5060362;28;19964;-71
2023/10/12 09:35:25;;;;;;;;;;;21.20;67.20;;;;;;5067112;28;19917;-71
2023/10/12 09:37:07;;;;;;;;;;;21.20;67.10;;;;;;5038529;28;20004;-71
2023/10/12 09:39:35;;;;;;;;;;;21.20;67.10;;;;;;5036805;28;20008;-72
2023/10/12 09:42:09;;;;;;;;;;;21.20;67.10;;;;;;5066014;28;19925;-73
2023/10/12 09:44:37;;;;;;;;;;;21.20;67.00;;;;;;5066597;28;19925;-71
2023/10/12 09:47:08;;;;;;;;;;;21.30;67.10;;;;;;5071180;28;19925;-72
2023/10/12 09:49:35;;;;;;;;;;;21.30;66.90;;;;;;5038219;28;19929;-71
2023/10/12 09:52:07;;;;;;;;;;;21.30;66.90;;;;;;5034706;28;19948;-72
2023/10/12 09:57:23;;;;;;;;;;;21.30;66.90;;;;;;5118269;27;19916;-69
2023/10/12 09:59:52;;;;;;;;;;;21.30;66.90;;;;;;5098423;28;19947;-70
2023/10/12 10:02:34;;;;;;;;;;;21.30;66.90;;;;;;5101658;28;20478;-70
2023/10/12 10:05:04;;;;;;;;;;;21.30;66.90;;;;;;5101569;28;20013;-71
2023/10/12 10:07:35;;;;;;;;;;;21.30;67.00;;;;;;5129453;27;19975;-71
2023/10/12 10:10:05;;;;;;;;;;;21.30;67.00;;;;;;5141217;27;20278;-71
2023/10/12 10:12:36;;;;;;;;;;;21.20;67.00;;;;;;5098602;28;19976;-68
2023/10/12 10:15:10;;;;;;;;;;;21.20;67.10;;;;;;5123006;27;20374;-69
2023/10/12 10:17:36;;;;;;;;;;;21.20;67.10;;;;;;5102843;28;19928;-69
2023/10/12 10:20:19;;;;;;;;;;;21.20;67.20;;;;;;5103453;28;19920;-71
2023/10/12 10:22:50;;;;;;;;;;;21.20;67.20;;;;;;5105672;28;19924;-72
2023/10/12 10:25:17;;;;;;;;;;;21.20;67.20;;;;;;5098202;28;19924;-72
2023/10/12 10:27:43;;;;;;;;;;;21.20;67.20;;;;;;5101108;28;19924;-70
2023/10/12 10:30:22;;;;;;;;;;;21.20;67.30;;;;;;5100762;28;19943;-71
2023/10/12 10:33:03;;;;;;;;;;;21.20;67.30;;;;;;5118165;27;19920;-71
2023/10/12 10:35:49;;;;;;;;;;;21.10;67.30;;;;;;5102006;28;19935;-72
2023/10/12 10:38:15;;;;;;;;;;;21.10;67.30;;;;;;5133200;27;19978;-72
2023/10/12 10:40:48;;;;;;;;;;;21.10;67.30;;;;;;5099101;28;19931;-72
2023/10/12 10:43:15;;;;;;;;;;;21.10;67.30;;;;;;5100690;28;19927;-73
2023/10/12 10:45:42;;;;;;;;;;;21.10;67.10;;;;;;5102347;28;19973;-74
2023/10/12 10:48:10;;;;;;;;;;;21.10;67.10;;;;;;5120808;27;19927;-71
2023/10/12 10:50:41;;;;;;;;;;;21.10;67.10;;;;;;5095424;28;19928;-70
2023/10/12 10:53:08;;;;;;;;;;;21.10;67.20;;;;;;5123626;27;19920;-71
2023/10/12 10:55:35;;;;;;;;;;;21.10;67.20;;;;;;5125892;27;19928;-74
2023/10/12 10:58:01;;;;;;;;;;;21.10;67.20;;;;;;5098540;28;19985;-71
2023/10/12 11:00:33;;;;;;;;;;;21.10;67.20;;;;;;5093620;28;20326;-72
2023/10/12 11:03:03;;;;;;;;;;;21.10;67.10;;;;;;5099736;28;19964;-71
2023/10/12 11:05:29;;;;;;;;;;;21.20;67.10;;;;;;5094047;28;19924;-73
2023/10/12 11:07:54;;;;;;;;;;;21.20;67.00;;;;;;5089367;28;19930;-73
2023/10/12 11:10:31;;;;;;;;;;;21.20;67.00;;;;;;5082919;28;19919;-72
2023/10/12 11:13:01;;;;;;;;;;;21.20;67.00;;;;;;5091260;28;19924;-73
2023/10/12 11:15:28;;;;;;;;;;;21.20;67.10;;;;;;5084030;28;19964;-73
2023/10/12 11:18:00;;;;;;;;;;;21.20;67.10;;;;;;5093125;27;19924;-72
2023/10/12 11:23:08;;;;;;;;;;;21.30;67.00;;;;;;5055241;28;19928;-74
2023/10/12 11:25:39;;;;;;;;;;;21.30;66.90;;;;;;5044048;28;19936;-75
2023/10/12 11:28:26;;;;;;;;;;;21.30;66.90;;;;;;5076601;28;19928;-73
2023/10/12 11:30:53;;;;;;;;;;;21.30;66.90;;;;;;5032856;28;20059;-71
2023/10/12 11:33:27;;;;;;;;;;;21.30;67.00;;;;;;5037502;28;19921;-70
2023/10/12 11:35:54;;;;;;;;;;;21.30;66.90;;;;;;5042284;28;19928;-73
2023/10/12 11:38:20;;;;;;;;;;;21.40;67.10;;;;;;5057802;28;20387;-72
2023/10/12 11:40:52;;;;;;;;;;;21.40;67.20;;;;;;5068591;28;20384;-71
2023/10/12 11:43:19;;;;;;;;;;;21.40;67.20;;;;;;5040854;28;19932;-71
2023/10/12 11:46:01;;;;;;;;;;;21.40;67.50;;;;;;5071842;28;19968;-75
2023/10/12 11:48:27;;;;;;;;;;;21.40;67.50;;;;;;5075255;28;19928;-75
2023/10/12 11:50:54;;;;;;;;;;;21.40;67.60;;;;;;5044579;28;19948;-76
2023/10/12 11:53:20;;;;;;;;;;;21.40;67.70;;;;;;5043801;28;19925;-73
2023/10/12 11:55:48;;;;;;;;;;;21.40;67.80;;;;;;5039343;28;19931;-71
2023/10/12 11:58:19;;;;;;;;;;;21.40;67.90;;;;;;5049928;28;19924;-74
2023/10/12 12:00:44;;;;;;;;;;;21.40;67.90;;;;;;5035970;28;20438;-69
2023/10/12 12:03:10;;;;;;;;;;;21.40;67.90;;;;;;5041765;28;19956;-70
2023/10/12 12:05:36;;;;;;;;;;;21.40;68.10;;;;;;5061275;28;20947;-79
2023/10/12 12:08:06;;;;;;;;;;;21.40;68.10;;;;;;5042826;28;20031;-76
2023/10/12 12:10:44;;;;;;;;;;;21.40;68.00;;;;;;5043510;28;19943;-71
2023/10/12 12:13:12;;;;;;;;;;;21.40;67.90;;;;;;5041961;28;19948;-70
2023/10/12 12:15:43;;;;;;;;;;;21.40;67.90;;;;;;5038786;28;19936;-76
2023/10/12 12:18:14;;;;;;;;;;;21.40;67.90;;;;;;5034837;28;20007;-72
2023/10/12 12:20:39;;;;;;;;;;;21.40;68.00;;;;;;5025432;28;19927;-77
2023/10/12 12:23:05;;;;;;;;;;;21.30;67.90;;;;;;5049963;28;20230;-71
2023/10/12 12:25:32;;;;;;;;;;;21.30;68.00;;;;;;5057823;28;20611;-71
2023/10/12 12:28:01;;;;;;;;;;;21.40;68.10;;;;;;5051294;28;19928;-70
2023/10/12 12:30:30;;;;;;;;;;;21.30;68.10;;;;;;5040972;28;20231;-71
2023/10/12 12:33:00;;;;;;;;;;;21.30;68.10;;;;;;5066321;28;19920;-72
2023/10/12 12:35:28;;;;;;;;;;;21.30;68.10;;;;;;5059416;28;19924;-74
2023/10/12 12:38:00;;;;;;;;;;;21.30;68.20;;;;;;5029727;28;19928;-71
2023/10/12 12:40:30;;;;;;;;;;;21.20;68.10;;;;;;5029014;28;19924;-75
2023/10/12 12:42:56;;;;;;;;;;;21.20;68.10;;;;;;5027950;28;20691;-71
2023/10/12 12:45:22;;;;;;;;;;;21.20;68.10;;;;;;5038258;28;19937;-71
2023/10/12 12:47:48;;;;;;;;;;;21.30;68.80;;;;;;5058923;28;19929;-70
2023/10/12 12:50:16;;;;;;;;;;;21.30;68.10;;;;;;5029626;28;20638;-72
2023/10/12 12:52:46;;;;;;;;;;;21.20;68.00;;;;;;5027125;28;20668;-75
2023/10/12 12:55:16;;;;;;;;;;;21.30;67.90;;;;;;5025277;28;19931;-71
2023/10/12 12:57:42;;;;;;;;;;;21.30;67.90;;;;;;5051349;28;20007;-76
2023/10/12 13:00:09;;;;;;;;;;;21.30;67.80;;;;;;5052099;28;19928;-74
2023/10/12 13:02:36;;;;;;;;;;;21.30;67.80;;;;;;5025270;28;19928;-73
2023/10/12 13:05:07;;;;;;;;;;;21.30;67.80;;;;;;5043068;28;20264;-74
2023/10/12 13:07:33;;;;;;;;;;;21.30;67.70;;;;;;5032403;28;19931;-74
2023/10/12 13:09:59;;;;;;;;;;;21.30;67.60;;;;;;5029362;28;20808;-75
2023/10/12 13:12:25;;;;;;;;;;;21.30;67.50;;;;;;5043060;28;20011;-75
2023/10/12 13:14:50;;;;;;;;;;;21.30;67.50;;;;;;5044291;28;19936;-74
2023/10/12 13:17:18;;;;;;;;;;;21.30;67.30;;;;;;5050076;28;19928;-76
2023/10/12 13:19:44;;;;;;;;;;;21.30;67.30;;;;;;5031128;28;20011;-71
2023/10/12 13:22:10;;;;;;;;;;;21.30;67.30;;;;;;5031883;28;19929;-71
2023/10/12 13:24:37;;;;;;;;;;;21.30;67.40;;;;;;5044427;28;19925;-72
2023/10/12 13:27:08;;;;;;;;;;;21.30;67.50;;;;;;5044230;28;20340;-71
2023/10/12 13:29:34;;;;;;;;;;;21.30;67.50;;;;;;5032078;28;20003;-72
2023/10/12 13:32:00;;;;;;;;;;;21.30;67.50;;;;;;5030163;28;19931;-72
2023/10/12 13:34:27;;;;;;;;;;;21.30;67.40;;;;;;5031053;28;19920;-72
2023/10/12 13:36:53;;;;;;;;;;;21.20;67.40;;;;;;5032868;28;19925;-72
2023/10/12 13:39:18;;;;;;;;;;;21.20;67.40;;;;;;5047357;28;19920;-72
2023/10/12 13:41:44;;;;;;;;;;;21.20;67.40;;;;;;5031686;28;19925;-71
2023/10/12 13:44:09;;;;;;;;;;;21.20;67.40;;;;;;5031770;28;19920;-79
2023/10/12 13:46:35;;;;;;;;;;;21.20;67.30;;;;;;5045594;28;20011;-71
2023/10/12 13:49:02;;;;;;;;;;;21.20;67.30;;;;;;5034832;28;19983;-72
2023/10/12 13:51:31;;;;;;;;;;;21.20;67.20;;;;;;5062934;28;20007;-79
2023/10/12 13:53:57;;;;;;;;;;;21.20;67.20;;;;;;5033583;28;19925;-72
2023/10/12 13:56:24;;;;;;;;;;;21.20;67.20;;;;;;5045164;28;20740;-77
2023/10/12 13:58:52;;;;;;;;;;;21.20;67.20;;;;;;5022691;28;19921;-71
2023/10/12 14:01:20;;;;;;;;;;;21.20;67.10;;;;;;5047741;28;20029;-79
2023/10/12 14:03:53;;;;;;;;;;;21.20;67.10;;;;;;5032824;28;20427;-78
2023/10/12 14:06:19;;;;;;;;;;;21.20;67.00;;;;;;5046202;28;19925;-72
2023/10/12 14:08:46;;;;;;;;;;;21.20;66.90;;;;;;5032579;28;19966;-71
2023/10/12 14:11:13;;;;;;;;;;;21.20;66.90;;;;;;5029664;28;19924;-70
2023/10/12 14:13:39;;;;;;;;;;;21.20;66.80;;;;;;5027008;28;19921;-71
2023/10/12 14:16:06;;;;;;;;;;;21.20;66.80;;;;;;5030766;28;19928;-71
2023/10/12 14:18:31;;;;;;;;;;;21.20;66.80;;;;;;5049934;28;19920;-71
2023/10/12 14:20:57;;;;;;;;;;;21.20;66.70;;;;;;5050335;28;19939;-70
2023/10/12 14:23:26;;;;;;;;;;;21.20;66.60;;;;;;5050920;28;19924;-69
2023/10/12 14:25:54;;;;;;;;;;;21.20;66.70;;;;;;5034959;28;20203;-69
2023/10/12 14:28:20;;;;;;;;;;;21.20;66.70;;;;;;5041059;28;20372;-70
2023/10/12 14:30:47;;;;;;;;;;;21.10;66.60;;;;;;5034235;28;19921;-71
2023/10/12 14:33:15;;;;;;;;;;;21.10;66.70;;;;;;5064058;28;19982;-70
2023/10/12 14:35:41;;;;;;;;;;;21.10;66.60;;;;;;5064649;28;19929;-71
2023/10/12 14:38:07;;;;;;;;;;;21.10;66.70;;;;;;5023962;28;20296;-72
2023/10/12 14:40:33;;;;;;;;;;;21.00;66.70;;;;;;5045846;28;19974;-71
2023/10/12 14:43:11;;;;;;;;;;;20.90;66.80;;;;;;5060747;28;19921;-71
2023/10/12 14:45:37;;;;;;;;;;;20.90;66.90;;;;;;5062550;28;19928;-68
2023/10/12 14:48:11;;;;;;;;;;;20.80;67.00;;;;;;5032137;28;19921;-68
2023/10/12 14:50:38;;;;;;;;;;;20.80;67.20;;;;;;5045505;28;19925;-69
2023/10/12 14:53:04;;;;;;;;;;;20.70;67.30;;;;;;5049645;28;19943;-69
2023/10/12 14:55:30;;;;;;;;;;;20.70;67.50;;;;;;5050484;28;19936;-69
2023/10/12 14:57:56;;;;;;;;;;;20.60;67.70;;;;;;5063426;28;19921;-69
2023/10/12 15:00:22;;;;;;;;;;;20.50;67.80;;;;;;5052332;28;19921;-69
2023/10/12 15:02:48;;;;;;;;;;;20.50;68.00;;;;;;5032171;28;19928;-71
2023/10/12 15:05:14;;;;;;;;;;;20.40;68.20;;;;;;5040240;28;20011;-69
2023/10/12 15:07:39;;;;;;;;;;;20.40;68.50;;;;;;5066123;28;20429;-69
2023/10/12 15:10:05;;;;;;;;;;;20.30;68.50;;;;;;5064758;28;19927;-69
2023/10/12 15:12:34;;;;;;;;;;;20.30;68.80;;;;;;5050351;28;21244;-68
2023/10/12 15:15:01;;;;;;;;;;;20.30;68.90;;;;;;5038672;28;19943;-68
2023/10/12 15:17:27;;;;;;;;;;;20.20;69.00;;;;;;5063941;28;19924;-69
2023/10/12 15:19:53;;;;;;;;;;;20.20;69.10;;;;;;5050349;28;19929;-68
2023/10/12 15:22:19;;;;;;;;;;;20.10;69.10;;;;;;5063647;28;19925;-68
2023/10/12 15:24:44;;;;;;;;;;;20.10;69.30;;;;;;5063932;28;19950;-68
2023/10/12 15:27:10;;;;;;;;;;;20.10;69.50;;;;;;5064867;28;19928;-68
2023/10/12 15:29:37;;;;;;;;;;;20.00;69.40;;;;;;5048321;28;19943;-68
2023/10/12 15:32:03;;;;;;;;;;;20.00;69.60;;;;;;5047471;28;19920;-68
2023/10/12 15:34:31;;;;;;;;;;;20.00;69.60;;;;;;5065800;28;20334;-69
2023/10/12 15:36:58;;;;;;;;;;;20.00;69.70;;;;;;5066820;28;19921;-69
2023/10/12 15:39:27;;;;;;;;;;;19.90;69.70;;;;;;5060544;28;20310;-69
2023/10/12 15:41:52;;;;;;;;;;;19.90;69.80;;;;;;5060773;28;19924;-68
2023/10/12 15:44:17;;;;;;;;;;;19.90;69.80;;;;;;5032971;28;20272;-68
2023/10/12 15:46:44;;;;;;;;;;;19.90;69.90;;;;;;5042550;28;20014;-69
2023/10/12 15:49:10;;;;;;;;;;;19.90;69.90;;;;;;5042454;28;19920;-69
2023/10/12 15:51:35;;;;;;;;;;;19.80;69.90;;;;;;5048478;28;19928;-69
2023/10/12 15:54:05;;;;;;;;;;;19.90;70.00;;;;;;5030896;28;20137;-69
2023/10/12 15:56:31;;;;;;;;;;;19.80;69.90;;;;;;5031703;28;19928;-69
2023/10/12 15:58:57;;;;;;;;;;;19.80;70.00;;;;;;5064788;28;20011;-69
2023/10/12 16:01:22;;;;;;;;;;;19.90;70.00;;;;;;5049427;28;20019;-69
2023/10/12 16:03:48;;;;;;;;;;;19.80;69.90;;;;;;5050123;28;19921;-68
2023/10/12 16:06:14;;;;;;;;;;;19.80;70.00;;;;;;5031844;28;19921;-68
2023/10/12 16:08:40;;;;;;;;;;;19.80;70.00;;;;;;5067566;28;19946;-69
2023/10/12 16:11:05;;;;;;;;;;;19.80;70.00;;;;;;5052790;28;20027;-69
2023/10/12 16:13:34;;;;;;;;;;;19.80;70.20;;;;;;5034051;28;20395;-69